sensor_id;sensor_type;location;lat;lon;timestamp;temperature;humidity
17202;DHT22;8717;53.588;10.176;2024-01-10T00:00:31;-7.90;99.90
17202;DHT22;8717;53.588;10.176;2024-01-10T00:02:58;-7.90;99.90
17202;DHT22;8717;53.588;10.176;2024-01-10T00:05:25;-8.00;99.90
17202;DHT22;8717;53.588;10.176;2024-01-10T00:07:52;-8.00;99.90
17202;DHT22;8717;53.588;10.176;2024-01-10T00:10:21;-8.10;99.90
17202;DHT22;8717;53.588;10.176;2024-01-10T00:12:48;-8.10;99.90
17202;DHT22;8717;53.588;10.176;2024-01-10T00:15:16;-8.10;99.90
17202;DHT22;8717;53.588;10.176;2024-01-10T00:17:43;-8.10;99.90
17202;DHT22;8717;53.588;10.176;2024-01-10T00:20:10;-8.10;99.90
17202;DHT22;8717;53.588;10.176;2024-01-10T00:22:36;-8.10;99.90
17202;DHT22;8717;53.588;10.176;2024-01-10T00:25:03;-8.10;99.90
17202;DHT22;8717;53.588;10.176;2024-01-10T00:27:32;-8.10;99.90
17202;DHT22;8717;53.588;10.176;2024-01-10T00:29:59;-8.10;99.90
17202;DHT22;8717;53.588;10.176;2024-01-10T00:32:26;-8.10;99.90
17202;DHT22;8717;53.588;10.176;2024-01-10T00:34:53;-8.10;99.90
17202;DHT22;8717;53.588;10.176;2024-01-10T00:37:20;-8.10;99.90
17202;DHT22;8717;53.588;10.176;2024-01-10T00:39:46;-8.10;99.90
17202;DHT22;8717;53.588;10.176;2024-01-10T00:42:13;-8.10;99.90
17202;DHT22;8717;53.588;10.176;2024-01-10T00:44:42;-8.10;99.90
17202;DHT22;8717;53.588;10.176;2024-01-10T00:47:09;-8.10;99.90
17202;DHT22;8717;53.588;10.176;2024-01-10T00:49:36;-8.10;99.90
17202;DHT22;8717;53.588;10.176;2024-01-10T00:52:03;-8.00;99.90
17202;DHT22;8717;53.588;10.176;2024-01-10T00:54:30;-8.00;99.90
17202;DHT22;8717;53.588;10.176;2024-01-10T00:56:57;-8.00;99.90
17202;DHT22;8717;53.588;10.176;2024-01-10T00:59:24;-7.90;99.90
17202;DHT22;8717;53.588;10.176;2024-01-10T01:01:52;-7.90;99.90
17202;DHT22;8717;53.588;10.176;2024-01-10T01:04:19;-7.90;99.90
17202;DHT22;8717;53.588;10.176;2024-01-10T01:06:46;-7.80;99.90
17202;DHT22;8717;53.588;10.176;2024-01-10T01:09:13;-7.80;99.90
17202;DHT22;8717;53.588;10.176;2024-01-10T01:11:41;-7.80;99.90
17202;DHT22;8717;53.588;10.176;2024-01-10T01:14:07;-7.80;99.90
17202;DHT22;8717;53.588;10.176;2024-01-10T01:16:34;-7.80;99.90
17202;DHT22;8717;53.588;10.176;2024-01-10T01:19:02;-7.80;99.90
17202;DHT22;8717;53.588;10.176;2024-01-10T01:21:29;-7.80;99.90
17202;DHT22;8717;53.588;10.176;2024-01-10T01:23:56;-7.80;99.90
17202;DHT22;8717;53.588;10.176;2024-01-10T01:26:23;-7.80;99.90
17202;DHT22;8717;53.588;10.176;2024-01-10T01:28:50;-7.80;99.90
17202;DHT22;8717;53.588;10.176;2024-01-10T01:31:16;-7.70;99.90
17202;DHT22;8717;53.588;10.176;2024-01-10T01:33:43;-7.70;99.90
17202;DHT22;8717;53.588;10.176;2024-01-10T01:36:11;-7.70;99.90
17202;DHT22;8717;53.588;10.176;2024-01-10T01:38:38;-7.60;99.90
17202;DHT22;8717;53.588;10.176;2024-01-10T01:41:05;-7.60;99.90
17202;DHT22;8717;53.588;10.176;2024-01-10T01:43:32;-7.60;99.90
17202;DHT22;8717;53.588;10.176;2024-01-10T01:45:59;-7.50;99.90
17202;DHT22;8717;53.588;10.176;2024-01-10T01:48:26;-7.50;99.90
17202;DHT22;8717;53.588;10.176;2024-01-10T01:50:56;-7.60;99.90
17202;DHT22;8717;53.588;10.176;2024-01-10T01:53:25;-7.60;99.90
17202;DHT22;8717;53.588;10.176;2024-01-10T01:55:54;-7.60;99.90
17202;DHT22;8717;53.588;10.176;2024-01-10T01:58:22;-7.50;99.90
17202;DHT22;8717;53.588;10.176;2024-01-10T02:00:50;-7.50;99.90
17202;DHT22;8717;53.588;10.176;2024-01-10T02:03:17;-7.50;99.90
17202;DHT22;8717;53.588;10.176;2024-01-10T02:05:46;-7.50;99.90
17202;DHT22;8717;53.588;10.176;2024-01-10T02:08:13;-7.50;99.90
17202;DHT22;8717;53.588;10.176;2024-01-10T02:10:41;-7.40;99.90
17202;DHT22;8717;53.588;10.176;2024-01-10T02:13:08;-7.40;99.90
17202;DHT22;8717;53.588;10.176;2024-01-10T02:15:37;-7.40;99.90
17202;DHT22;8717;53.588;10.176;2024-01-10T02:18:04;-7.40;99.90
17202;DHT22;8717;53.588;10.176;2024-01-10T02:20:32;-7.40;99.90
17202;DHT22;8717;53.588;10.176;2024-01-10T02:22:59;-7.40;99.90
17202;DHT22;8717;53.588;10.176;2024-01-10T02:25:27;-7.40;99.90
17202;DHT22;8717;53.588;10.176;2024-01-10T02:27:54;-7.30;99.90
17202;DHT22;8717;53.588;10.176;2024-01-10T02:30:21;-7.30;99.90
17202;DHT22;8717;53.588;10.176;2024-01-10T02:32:47;-7.20;99.90
17202;DHT22;8717;53.588;10.176;2024-01-10T02:35:15;-7.20;99.90
17202;DHT22;8717;53.588;10.176;2024-01-10T02:37:41;-7.10;99.90
17202;DHT22;8717;53.588;10.176;2024-01-10T02:40:09;-7.00;99.90
17202;DHT22;8717;53.588;10.176;2024-01-10T02:42:37;-6.90;99.90
17202;DHT22;8717;53.588;10.176;2024-01-10T02:45:04;-6.80;99.90
17202;DHT22;8717;53.588;10.176;2024-01-10T02:47:30;-6.80;99.90
17202;DHT22;8717;53.588;10.176;2024-01-10T02:49:57;-6.80;99.90
17202;DHT22;8717;53.588;10.176;2024-01-10T02:52:24;-6.80;99.90
17202;DHT22;8717;53.588;10.176;2024-01-10T02:54:51;-6.70;99.90
17202;DHT22;8717;53.588;10.176;2024-01-10T02:57:17;-6.70;99.90
17202;DHT22;8717;53.588;10.176;2024-01-10T02:59:46;-6.80;99.90
17202;DHT22;8717;53.588;10.176;2024-01-10T03:02:12;-6.80;99.90
17202;DHT22;8717;53.588;10.176;2024-01-10T03:04:39;-6.80;99.90
17202;DHT22;8717;53.588;10.176;2024-01-10T03:07:06;-6.80;99.90
17202;DHT22;8717;53.588;10.176;2024-01-10T03:09:33;-6.70;99.90
17202;DHT22;8717;53.588;10.176;2024-01-10T03:12:00;-6.70;99.90
17202;DHT22;8717;53.588;10.176;2024-01-10T03:14:27;-6.70;99.90
17202;DHT22;8717;53.588;10.176;2024-01-10T03:16:55;-6.60;99.90
17202;DHT22;8717;53.588;10.176;2024-01-10T03:19:21;-6.50;99.90
17202;DHT22;8717;53.588;10.176;2024-01-10T03:21:48;-6.50;99.90
17202;DHT22;8717;53.588;10.176;2024-01-10T03:24:15;-6.40;99.90
17202;DHT22;8717;53.588;10.176;2024-01-10T03:26:42;-6.30;99.90
17202;DHT22;8717;53.588;10.176;2024-01-10T03:29:08;-6.30;99.90
17202;DHT22;8717;53.588;10.176;2024-01-10T03:31:36;-6.20;99.90
17202;DHT22;8717;53.588;10.176;2024-01-10T03:34:04;-6.10;99.90
17202;DHT22;8717;53.588;10.176;2024-01-10T03:36:31;-6.10;99.90
17202;DHT22;8717;53.588;10.176;2024-01-10T03:38:58;-6.00;99.90
17202;DHT22;8717;53.588;10.176;2024-01-10T03:41:24;-6.00;99.90
17202;DHT22;8717;53.588;10.176;2024-01-10T03:43:51;-5.90;99.90
17202;DHT22;8717;53.588;10.176;2024-01-10T03:46:19;-5.90;99.90
17202;DHT22;8717;53.588;10.176;2024-01-10T03:48:45;-5.80;99.90
17202;DHT22;8717;53.588;10.176;2024-01-10T03:51:16;-5.80;99.90
17202;DHT22;8717;53.588;10.176;2024-01-10T03:53:43;-5.70;99.90
17202;DHT22;8717;53.588;10.176;2024-01-10T03:56:11;-5.70;99.90
17202;DHT22;8717;53.588;10.176;2024-01-10T03:58:37;-5.60;99.90
17202;DHT22;8717;53.588;10.176;2024-01-10T04:01:05;-5.60;99.90
17202;DHT22;8717;53.588;10.176;2024-01-10T04:03:33;-5.60;99.90
17202;DHT22;8717;53.588;10.176;2024-01-10T04:06:00;-5.50;99.90
17202;DHT22;8717;53.588;10.176;2024-01-10T04:08:28;-5.50;99.90
17202;DHT22;8717;53.588;10.176;2024-01-10T04:10:55;-5.50;99.90
17202;DHT22;8717;53.588;10.176;2024-01-10T04:13:23;-5.40;99.90
17202;DHT22;8717;53.588;10.176;2024-01-10T04:15:50;-5.40;99.90
17202;DHT22;8717;53.588;10.176;2024-01-10T04:18:16;-5.30;99.90
17202;DHT22;8717;53.588;10.176;2024-01-10T04:20:43;-5.30;99.90
17202;DHT22;8717;53.588;10.176;2024-01-10T04:23:10;-5.20;99.90
17202;DHT22;8717;53.588;10.176;2024-01-10T04:25:38;-5.20;99.90
17202;DHT22;8717;53.588;10.176;2024-01-10T04:28:06;-5.20;99.90
17202;DHT22;8717;53.588;10.176;2024-01-10T04:30:33;-5.20;99.90
17202;DHT22;8717;53.588;10.176;2024-01-10T04:33:00;-5.10;99.90
17202;DHT22;8717;53.588;10.176;2024-01-10T04:35:26;-5.10;99.90
17202;DHT22;8717;53.588;10.176;2024-01-10T04:37:54;-5.00;99.90
17202;DHT22;8717;53.588;10.176;2024-01-10T04:40:20;-5.00;99.90
17202;DHT22;8717;53.588;10.176;2024-01-10T04:42:48;-5.00;99.90
17202;DHT22;8717;53.588;10.176;2024-01-10T04:45:15;-4.90;99.90
17202;DHT22;8717;53.588;10.176;2024-01-10T04:47:42;-4.90;99.90
17202;DHT22;8717;53.588;10.176;2024-01-10T04:50:10;-4.90;99.90
17202;DHT22;8717;53.588;10.176;2024-01-10T04:52:37;-4.80;99.90
17202;DHT22;8717;53.588;10.176;2024-01-10T04:55:05;-4.80;99.90
17202;DHT22;8717;53.588;10.176;2024-01-10T04:57:33;-4.70;99.90
17202;DHT22;8717;53.588;10.176;2024-01-10T05:00:02;-4.60;99.90
17202;DHT22;8717;53.588;10.176;2024-01-10T05:02:30;-4.60;99.90
17202;DHT22;8717;53.588;10.176;2024-01-10T05:04:57;-4.50;99.90
17202;DHT22;8717;53.588;10.176;2024-01-10T05:07:24;-4.40;99.90
17202;DHT22;8717;53.588;10.176;2024-01-10T05:09:51;-4.40;99.90
17202;DHT22;8717;53.588;10.176;2024-01-10T05:12:18;-4.30;99.90
17202;DHT22;8717;53.588;10.176;2024-01-10T05:14:45;-4.20;99.90
17202;DHT22;8717;53.588;10.176;2024-01-10T05:17:14;-4.20;99.90
17202;DHT22;8717;53.588;10.176;2024-01-10T05:19:40;-4.20;99.90
17202;DHT22;8717;53.588;10.176;2024-01-10T05:22:07;-4.10;99.90
17202;DHT22;8717;53.588;10.176;2024-01-10T05:24:34;-4.10;99.90
17202;DHT22;8717;53.588;10.176;2024-01-10T05:27:02;-4.10;99.90
17202;DHT22;8717;53.588;10.176;2024-01-10T05:29:29;-4.00;99.90
17202;DHT22;8717;53.588;10.176;2024-01-10T05:31:56;-4.00;99.90
17202;DHT22;8717;53.588;10.176;2024-01-10T05:34:24;-4.00;99.90
17202;DHT22;8717;53.588;10.176;2024-01-10T05:36:51;-4.00;99.90
17202;DHT22;8717;53.588;10.176;2024-01-10T05:39:19;-4.00;99.90
17202;DHT22;8717;53.588;10.176;2024-01-10T05:41:46;-4.00;99.90
17202;DHT22;8717;53.588;10.176;2024-01-10T05:44:12;-3.90;99.90
17202;DHT22;8717;53.588;10.176;2024-01-10T05:46:40;-3.90;99.90
17202;DHT22;8717;53.588;10.176;2024-01-10T05:49:08;-4.00;99.90
17202;DHT22;8717;53.588;10.176;2024-01-10T05:51:37;-3.90;99.90
17202;DHT22;8717;53.588;10.176;2024-01-10T05:54:04;-3.90;99.90
17202;DHT22;8717;53.588;10.176;2024-01-10T05:56:31;-3.90;99.90
17202;DHT22;8717;53.588;10.176;2024-01-10T05:58:57;-3.90;99.90
17202;DHT22;8717;53.588;10.176;2024-01-10T06:01:24;-3.90;99.90
17202;DHT22;8717;53.588;10.176;2024-01-10T06:03:51;-3.90;99.90
17202;DHT22;8717;53.588;10.176;2024-01-10T06:06:18;-3.80;99.90
17202;DHT22;8717;53.588;10.176;2024-01-10T06:08:46;-3.80;99.90
17202;DHT22;8717;53.588;10.176;2024-01-10T06:11:13;-3.80;99.90
17202;DHT22;8717;53.588;10.176;2024-01-10T06:13:40;-3.80;99.90
17202;DHT22;8717;53.588;10.176;2024-01-10T06:16:07;-3.80;99.90
17202;DHT22;8717;53.588;10.176;2024-01-10T06:18:33;-3.80;99.90
17202;DHT22;8717;53.588;10.176;2024-01-10T06:21:01;-3.80;99.90
17202;DHT22;8717;53.588;10.176;2024-01-10T06:23:28;-3.80;99.90
17202;DHT22;8717;53.588;10.176;2024-01-10T06:25:56;-3.80;99.90
17202;DHT22;8717;53.588;10.176;2024-01-10T06:28:23;-3.80;99.90
17202;DHT22;8717;53.588;10.176;2024-01-10T06:30:50;-3.80;99.90
17202;DHT22;8717;53.588;10.176;2024-01-10T06:33:17;-3.80;99.90
17202;DHT22;8717;53.588;10.176;2024-01-10T06:35:45;-3.70;99.90
17202;DHT22;8717;53.588;10.176;2024-01-10T06:38:12;-3.80;99.90
17202;DHT22;8717;53.588;10.176;2024-01-10T06:40:39;-3.80;99.90
17202;DHT22;8717;53.588;10.176;2024-01-10T06:43:08;-3.90;99.90
17202;DHT22;8717;53.588;10.176;2024-01-10T06:45:35;-3.80;99.90
17202;DHT22;8717;53.588;10.176;2024-01-10T06:48:02;-3.80;99.90
17202;DHT22;8717;53.588;10.176;2024-01-10T06:50:28;-3.80;99.90
17202;DHT22;8717;53.588;10.176;2024-01-10T06:52:56;-3.80;99.90
17202;DHT22;8717;53.588;10.176;2024-01-10T06:55:22;-3.80;99.90
17202;DHT22;8717;53.588;10.176;2024-01-10T06:57:50;-3.80;99.90
17202;DHT22;8717;53.588;10.176;2024-01-10T07:00:20;-3.70;99.90
17202;DHT22;8717;53.588;10.176;2024-01-10T07:02:47;-3.70;99.90
17202;DHT22;8717;53.588;10.176;2024-01-10T07:05:15;-3.80;99.90
17202;DHT22;8717;53.588;10.176;2024-01-10T07:07:42;-3.70;99.90
17202;DHT22;8717;53.588;10.176;2024-01-10T07:10:09;-3.70;99.90
17202;DHT22;8717;53.588;10.176;2024-01-10T07:12:37;-3.60;99.90
17202;DHT22;8717;53.588;10.176;2024-01-10T07:15:05;-3.60;99.90
17202;DHT22;8717;53.588;10.176;2024-01-10T07:17:34;-3.70;99.90
17202;DHT22;8717;53.588;10.176;2024-01-10T07:20:01;-3.60;99.90
17202;DHT22;8717;53.588;10.176;2024-01-10T07:22:28;-3.70;99.90
17202;DHT22;8717;53.588;10.176;2024-01-10T07:24:55;-3.60;99.90
17202;DHT22;8717;53.588;10.176;2024-01-10T07:27:22;-3.70;99.90
17202;DHT22;8717;53.588;10.176;2024-01-10T07:29:49;-3.60;99.90
17202;DHT22;8717;53.588;10.176;2024-01-10T07:32:16;-3.60;99.90
17202;DHT22;8717;53.588;10.176;2024-01-10T07:34:46;-3.60;99.90
17202;DHT22;8717;53.588;10.176;2024-01-10T07:37:13;-3.60;99.90
17202;DHT22;8717;53.588;10.176;2024-01-10T07:39:42;-3.60;99.90
17202;DHT22;8717;53.588;10.176;2024-01-10T07:42:08;-3.60;99.90
17202;DHT22;8717;53.588;10.176;2024-01-10T07:44:35;-3.60;99.90
17202;DHT22;8717;53.588;10.176;2024-01-10T07:47:02;-3.50;99.90
17202;DHT22;8717;53.588;10.176;2024-01-10T07:49:29;-3.50;99.90
17202;DHT22;8717;53.588;10.176;2024-01-10T07:51:59;-3.50;99.90
17202;DHT22;8717;53.588;10.176;2024-01-10T07:54:25;-3.40;99.90
17202;DHT22;8717;53.588;10.176;2024-01-10T07:56:52;-3.40;99.90
17202;DHT22;8717;53.588;10.176;2024-01-10T07:59:20;-3.30;99.90
17202;DHT22;8717;53.588;10.176;2024-01-10T08:01:54;-3.30;99.90
17202;DHT22;8717;53.588;10.176;2024-01-10T08:04:21;-3.30;99.90
17202;DHT22;8717;53.588;10.176;2024-01-10T08:06:49;-3.20;99.90
17202;DHT22;8717;53.588;10.176;2024-01-10T08:09:17;-3.20;99.90
17202;DHT22;8717;53.588;10.176;2024-01-10T08:11:44;-3.10;99.90
17202;DHT22;8717;53.588;10.176;2024-01-10T08:14:11;-3.10;99.90
17202;DHT22;8717;53.588;10.176;2024-01-10T08:16:38;-3.10;99.90
17202;DHT22;8717;53.588;10.176;2024-01-10T08:19:04;-3.00;99.90
17202;DHT22;8717;53.588;10.176;2024-01-10T08:21:31;-3.00;99.90
17202;DHT22;8717;53.588;10.176;2024-01-10T08:23:58;-3.00;99.90
17202;DHT22;8717;53.588;10.176;2024-01-10T08:26:26;-2.90;99.90
17202;DHT22;8717;53.588;10.176;2024-01-10T08:28:53;-2.90;99.90
17202;DHT22;8717;53.588;10.176;2024-01-10T08:31:20;-2.90;99.90
17202;DHT22;8717;53.588;10.176;2024-01-10T08:33:48;-2.80;99.90
17202;DHT22;8717;53.588;10.176;2024-01-10T08:36:15;-2.80;99.90
17202;DHT22;8717;53.588;10.176;2024-01-10T08:38:42;-2.70;99.90
17202;DHT22;8717;53.588;10.176;2024-01-10T08:41:09;-2.70;99.90
17202;DHT22;8717;53.588;10.176;2024-01-10T08:43:38;-2.60;99.90
17202;DHT22;8717;53.588;10.176;2024-01-10T08:46:05;-2.60;99.90
17202;DHT22;8717;53.588;10.176;2024-01-10T08:48:32;-2.50;99.90
17202;DHT22;8717;53.588;10.176;2024-01-10T08:50:59;-2.50;99.90
17202;DHT22;8717;53.588;10.176;2024-01-10T08:53:26;-2.50;99.90
17202;DHT22;8717;53.588;10.176;2024-01-10T08:55:52;-2.40;99.90
17202;DHT22;8717;53.588;10.176;2024-01-10T08:58:20;-2.50;99.90
17202;DHT22;8717;53.588;10.176;2024-01-10T09:00:48;-2.40;99.90
17202;DHT22;8717;53.588;10.176;2024-01-10T09:03:15;-2.40;99.90
17202;DHT22;8717;53.588;10.176;2024-01-10T09:05:42;-2.40;99.90
17202;DHT22;8717;53.588;10.176;2024-01-10T09:08:09;-2.40;99.90
17202;DHT22;8717;53.588;10.176;2024-01-10T09:10:35;-2.40;99.90
17202;DHT22;8717;53.588;10.176;2024-01-10T09:13:03;-2.40;99.90
17202;DHT22;8717;53.588;10.176;2024-01-10T09:15:31;-2.40;99.90
17202;DHT22;8717;53.588;10.176;2024-01-10T09:17:59;-2.40;99.90
17202;DHT22;8717;53.588;10.176;2024-01-10T09:20:26;-2.40;99.90
17202;DHT22;8717;53.588;10.176;2024-01-10T09:22:53;-2.40;99.90
17202;DHT22;8717;53.588;10.176;2024-01-10T09:25:20;-2.40;99.90
17202;DHT22;8717;53.588;10.176;2024-01-10T09:27:46;-2.40;99.90
17202;DHT22;8717;53.588;10.176;2024-01-10T09:30:14;-2.40;99.90
17202;DHT22;8717;53.588;10.176;2024-01-10T09:32:42;-2.40;99.90
17202;DHT22;8717;53.588;10.176;2024-01-10T09:35:10;-2.40;99.90
17202;DHT22;8717;53.588;10.176;2024-01-10T09:37:38;-2.40;99.90
17202;DHT22;8717;53.588;10.176;2024-01-10T09:40:05;-2.40;99.90
17202;DHT22;8717;53.588;10.176;2024-01-10T09:42:33;-2.40;99.90
17202;DHT22;8717;53.588;10.176;2024-01-10T09:45:02;-2.30;99.90
17202;DHT22;8717;53.588;10.176;2024-01-10T09:47:32;-2.30;99.90
17202;DHT22;8717;53.588;10.176;2024-01-10T09:49:59;-2.30;99.90
17202;DHT22;8717;53.588;10.176;2024-01-10T09:52:29;-2.30;99.90
17202;DHT22;8717;53.588;10.176;2024-01-10T09:54:58;-2.20;99.90
17202;DHT22;8717;53.588;10.176;2024-01-10T09:57:27;-2.20;99.90
17202;DHT22;8717;53.588;10.176;2024-01-10T09:59:54;-2.10;99.90
17202;DHT22;8717;53.588;10.176;2024-01-10T10:02:21;-2.10;99.90
17202;DHT22;8717;53.588;10.176;2024-01-10T10:04:54;-2.10;99.90
17202;DHT22;8717;53.588;10.176;2024-01-10T10:07:21;-2.10;99.90
17202;DHT22;8717;53.588;10.176;2024-01-10T10:09:49;-2.10;99.90
17202;DHT22;8717;53.588;10.176;2024-01-10T10:12:18;-2.20;99.90
17202;DHT22;8717;53.588;10.176;2024-01-10T10:14:45;-2.20;99.90
17202;DHT22;8717;53.588;10.176;2024-01-10T10:17:15;-2.30;99.90
17202;DHT22;8717;53.588;10.176;2024-01-10T10:19:42;-2.30;99.90
17202;DHT22;8717;53.588;10.176;2024-01-10T10:22:10;-2.40;99.90
17202;DHT22;8717;53.588;10.176;2024-01-10T10:24:37;-2.40;99.90
17202;DHT22;8717;53.588;10.176;2024-01-10T10:27:10;-2.40;99.90
17202;DHT22;8717;53.588;10.176;2024-01-10T10:29:37;-2.40;99.90
17202;DHT22;8717;53.588;10.176;2024-01-10T10:32:05;-2.50;99.90
17202;DHT22;8717;53.588;10.176;2024-01-10T10:34:33;-2.40;99.90
17202;DHT22;8717;53.588;10.176;2024-01-10T10:37:00;-2.40;99.90
17202;DHT22;8717;53.588;10.176;2024-01-10T10:39:28;-2.30;99.90
17202;DHT22;8717;53.588;10.176;2024-01-10T10:41:55;-2.30;99.90
17202;DHT22;8717;53.588;10.176;2024-01-10T10:44:25;-2.20;99.90
17202;DHT22;8717;53.588;10.176;2024-01-10T10:46:53;-2.20;99.90
17202;DHT22;8717;53.588;10.176;2024-01-10T10:49:27;-2.10;99.90
17202;DHT22;8717;53.588;10.176;2024-01-10T10:51:57;-2.10;99.90
17202;DHT22;8717;53.588;10.176;2024-01-10T10:54:26;-2.10;99.90
17202;DHT22;8717;53.588;10.176;2024-01-10T10:56:56;-2.20;99.90
17202;DHT22;8717;53.588;10.176;2024-01-10T10:59:25;-2.30;99.90
17202;DHT22;8717;53.588;10.176;2024-01-10T11:01:54;-2.50;99.90
17202;DHT22;8717;53.588;10.176;2024-01-10T11:04:23;-2.60;99.90
17202;DHT22;8717;53.588;10.176;2024-01-10T11:06:50;-2.70;99.90
17202;DHT22;8717;53.588;10.176;2024-01-10T11:09:18;-2.80;99.90
17202;DHT22;8717;53.588;10.176;2024-01-10T11:12:00;-2.90;99.90
17202;DHT22;8717;53.588;10.176;2024-01-10T11:14:46;-2.90;99.90
17202;DHT22;8717;53.588;10.176;2024-01-10T11:17:37;-2.90;99.90
17202;DHT22;8717;53.588;10.176;2024-01-10T11:20:25;-2.90;99.90
17202;DHT22;8717;53.588;10.176;2024-01-10T11:23:21;-2.90;99.90
17202;DHT22;8717;53.588;10.176;2024-01-10T11:25:53;-3.00;99.90
17202;DHT22;8717;53.588;10.176;2024-01-10T11:28:20;-2.90;99.90
17202;DHT22;8717;53.588;10.176;2024-01-10T11:30:50;-2.90;99.90
17202;DHT22;8717;53.588;10.176;2024-01-10T11:33:22;-2.90;99.90
17202;DHT22;8717;53.588;10.176;2024-01-10T11:36:08;-2.80;99.90
17202;DHT22;8717;53.588;10.176;2024-01-10T11:38:49;-2.70;99.90
17202;DHT22;8717;53.588;10.176;2024-01-10T11:41:21;-2.70;99.90
17202;DHT22;8717;53.588;10.176;2024-01-10T11:44:28;-2.60;99.90
17202;DHT22;8717;53.588;10.176;2024-01-10T11:46:58;-2.50;99.90
17202;DHT22;8717;53.588;10.176;2024-01-10T11:49:25;-2.30;99.90
17202;DHT22;8717;53.588;10.176;2024-01-10T11:51:55;-2.20;99.90
17202;DHT22;8717;53.588;10.176;2024-01-10T11:54:39;-2.10;99.90
17202;DHT22;8717;53.588;10.176;2024-01-10T11:57:16;-2.10;99.90
17202;DHT22;8717;53.588;10.176;2024-01-10T11:59:45;-2.10;99.90
17202;DHT22;8717;53.588;10.176;2024-01-10T12:02:14;-2.10;99.90
17202;DHT22;8717;53.588;10.176;2024-01-10T12:04:40;-2.10;99.90
17202;DHT22;8717;53.588;10.176;2024-01-10T12:07:08;-2.10;99.90
17202;DHT22;8717;53.588;10.176;2024-01-10T12:09:35;-2.10;99.90
17202;DHT22;8717;53.588;10.176;2024-01-10T12:12:02;-2.00;99.90
17202;DHT22;8717;53.588;10.176;2024-01-10T12:14:29;-1.90;99.90
17202;DHT22;8717;53.588;10.176;2024-01-10T12:16:56;-1.90;99.90
17202;DHT22;8717;53.588;10.176;2024-01-10T12:19:25;-1.80;99.90
17202;DHT22;8717;53.588;10.176;2024-01-10T12:21:52;-1.70;99.90
17202;DHT22;8717;53.588;10.176;2024-01-10T12:24:20;-1.60;99.90
17202;DHT22;8717;53.588;10.176;2024-01-10T12:26:47;-1.50;99.90
17202;DHT22;8717;53.588;10.176;2024-01-10T12:29:17;-1.50;99.90
17202;DHT22;8717;53.588;10.176;2024-01-10T12:31:45;-1.40;99.90
17202;DHT22;8717;53.588;10.176;2024-01-10T12:34:12;-1.30;99.90
17202;DHT22;8717;53.588;10.176;2024-01-10T12:36:41;-1.30;99.90
17202;DHT22;8717;53.588;10.176;2024-01-10T12:39:09;-1.30;99.90
17202;DHT22;8717;53.588;10.176;2024-01-10T12:41:36;-1.30;99.90
17202;DHT22;8717;53.588;10.176;2024-01-10T12:44:04;-1.30;99.90
17202;DHT22;8717;53.588;10.176;2024-01-10T12:46:32;-1.30;99.90
17202;DHT22;8717;53.588;10.176;2024-01-10T12:49:00;-1.40;99.90
17202;DHT22;8717;53.588;10.176;2024-01-10T12:51:28;-1.40;99.90
17202;DHT22;8717;53.588;10.176;2024-01-10T12:53:57;-1.50;99.90
17202;DHT22;8717;53.588;10.176;2024-01-10T12:56:25;-1.50;99.90
17202;DHT22;8717;53.588;10.176;2024-01-10T12:58:53;-1.60;99.90
17202;DHT22;8717;53.588;10.176;2024-01-10T13:01:21;-1.50;99.90
17202;DHT22;8717;53.588;10.176;2024-01-10T13:03:48;-1.50;99.90
17202;DHT22;8717;53.588;10.176;2024-01-10T13:06:16;-1.50;99.90
17202;DHT22;8717;53.588;10.176;2024-01-10T13:08:44;-1.50;99.90
17202;DHT22;8717;53.588;10.176;2024-01-10T13:11:12;-1.50;99.90
17202;DHT22;8717;53.588;10.176;2024-01-10T13:13:39;-1.60;99.90
17202;DHT22;8717;53.588;10.176;2024-01-10T13:16:07;-1.60;99.90
17202;DHT22;8717;53.588;10.176;2024-01-10T13:18:36;-1.60;99.90
17202;DHT22;8717;53.588;10.176;2024-01-10T13:21:04;-1.60;99.90
17202;DHT22;8717;53.588;10.176;2024-01-10T13:23:31;-1.60;99.90
17202;DHT22;8717;53.588;10.176;2024-01-10T13:25:59;-1.60;99.90
17202;DHT22;8717;53.588;10.176;2024-01-10T13:28:27;-1.50;99.90
17202;DHT22;8717;53.588;10.176;2024-01-10T13:30:55;-1.50;99.90
17202;DHT22;8717;53.588;10.176;2024-01-10T13:33:22;-1.50;99.90
17202;DHT22;8717;53.588;10.176;2024-01-10T13:35:51;-1.50;99.90
17202;DHT22;8717;53.588;10.176;2024-01-10T13:38:18;-1.40;99.90
17202;DHT22;8717;53.588;10.176;2024-01-10T13:40:45;-1.40;99.90
17202;DHT22;8717;53.588;10.176;2024-01-10T13:43:12;-1.40;99.90
17202;DHT22;8717;53.588;10.176;2024-01-10T13:45:42;-1.50;99.90
17202;DHT22;8717;53.588;10.176;2024-01-10T13:48:09;-1.50;99.90
17202;DHT22;8717;53.588;10.176;2024-01-10T13:50:36;-1.60;99.90
17202;DHT22;8717;53.588;10.176;2024-01-10T13:53:03;-1.60;99.90
17202;DHT22;8717;53.588;10.176;2024-01-10T13:55:30;-1.60;99.90
17202;DHT22;8717;53.588;10.176;2024-01-10T13:57:57;-1.70;99.90
17202;DHT22;8717;53.588;10.176;2024-01-10T14:00:24;-1.70;99.90
17202;DHT22;8717;53.588;10.176;2024-01-10T14:02:53;-1.70;99.90
17202;DHT22;8717;53.588;10.176;2024-01-10T14:05:24;-1.80;99.90
17202;DHT22;8717;53.588;10.176;2024-01-10T14:07:51;-1.80;99.90
17202;DHT22;8717;53.588;10.176;2024-01-10T14:10:18;-1.80;99.90
17202;DHT22;8717;53.588;10.176;2024-01-10T14:12:44;-1.90;99.90
17202;DHT22;8717;53.588;10.176;2024-01-10T14:15:11;-1.90;99.90
17202;DHT22;8717;53.588;10.176;2024-01-10T14:17:40;-2.00;99.90
17202;DHT22;8717;53.588;10.176;2024-01-10T14:20:09;-2.10;99.90
17202;DHT22;8717;53.588;10.176;2024-01-10T14:22:36;-2.10;99.90
17202;DHT22;8717;53.588;10.176;2024-01-10T14:25:03;-2.10;99.90
17202;DHT22;8717;53.588;10.176;2024-01-10T14:27:31;-2.20;99.90
17202;DHT22;8717;53.588;10.176;2024-01-10T14:29:57;-2.20;99.90
17202;DHT22;8717;53.588;10.176;2024-01-10T14:32:25;-2.30;99.90
17202;DHT22;8717;53.588;10.176;2024-01-10T14:34:52;-2.30;99.90
17202;DHT22;8717;53.588;10.176;2024-01-10T14:37:20;-2.40;99.90
17202;DHT22;8717;53.588;10.176;2024-01-10T14:39:47;-2.50;99.90
17202;DHT22;8717;53.588;10.176;2024-01-10T14:42:14;-2.50;99.90
17202;DHT22;8717;53.588;10.176;2024-01-10T14:44:40;-2.60;99.90
17202;DHT22;8717;53.588;10.176;2024-01-10T14:47:07;-2.70;99.90
17202;DHT22;8717;53.588;10.176;2024-01-10T14:49:34;-2.70;99.90
17202;DHT22;8717;53.588;10.176;2024-01-10T14:52:01;-2.80;99.90
17202;DHT22;8717;53.588;10.176;2024-01-10T14:54:30;-2.80;99.90
17202;DHT22;8717;53.588;10.176;2024-01-10T14:56:57;-2.90;99.90
17202;DHT22;8717;53.588;10.176;2024-01-10T14:59:23;-2.90;99.90
17202;DHT22;8717;53.588;10.176;2024-01-10T15:01:51;-3.00;99.90
17202;DHT22;8717;53.588;10.176;2024-01-10T15:04:18;-3.10;99.90
17202;DHT22;8717;53.588;10.176;2024-01-10T15:06:45;-3.10;99.90
17202;DHT22;8717;53.588;10.176;2024-01-10T15:09:12;-3.20;99.90
17202;DHT22;8717;53.588;10.176;2024-01-10T15:11:41;-3.20;99.90
17202;DHT22;8717;53.588;10.176;2024-01-10T15:14:08;-3.20;99.90
17202;DHT22;8717;53.588;10.176;2024-01-10T15:16:35;-3.20;99.90
17202;DHT22;8717;53.588;10.176;2024-01-10T15:19:02;-3.20;99.90
17202;DHT22;8717;53.588;10.176;2024-01-10T15:21:28;-3.20;99.90
17202;DHT22;8717;53.588;10.176;2024-01-10T15:23:55;-3.30;99.90
17202;DHT22;8717;53.588;10.176;2024-01-10T15:26:22;-3.30;99.90
17202;DHT22;8717;53.588;10.176;2024-01-10T15:28:51;-3.30;99.90
17202;DHT22;8717;53.588;10.176;2024-01-10T15:31:20;-3.30;99.90
17202;DHT22;8717;53.588;10.176;2024-01-10T15:33:47;-3.30;99.90